Time;durP1;ratioP1;P1;durP2;ratioP2;P2;SDS_P1;SDS_P2;PMS_P1;PMS_P2;Temp;Humidity;BMP_temperature;BMP_pressure;BME280_temperature;BME280_humidity;BME280_pressure;Samples;Min_cycle;Max_cycle;Signal;HPM_P1;HPM_P2
2021/10/02 00:02:01;;;;;;;6.85;6.15;;;;;;;14.51;93.63;99336.84;5035828;28;20192;-70
2021/10/02 00:35:20;;;;;;;5.65;4.60;;;;;;;14.82;89.08;99323.63;5035219;28;20184;-71
2021/10/02 00:41:17;;;;;;;5.13;4.22;;;;;;;14.46;92.53;99322.81;4974260;28;20287;-72
2021/10/02 00:46:29;;;;;;;4.70;3.55;;;;;;;14.35;89.94;99320.94;5020509;28;20210;-71
2021/10/02 00:48:55;;;;;;;5.30;3.20;;;;;;;14.51;89.79;99318.72;5035284;28;20196;-72
2021/10/02 00:51:22;;;;;;;5.05;3.72;;;;;;;14.57;89.35;99323.72;5034950;28;20204;-72
2021/10/02 00:53:49;;;;;;;4.63;3.03;;;;;;;14.73;88.75;99315.22;5034621;28;20230;-72
2021/10/02 00:56:17;;;;;;;5.80;5.10;;;;;;;14.77;87.96;99316.72;5034714;28;20207;-71
2021/10/02 00:58:48;;;;;;;5.60;3.10;;;;;;;14.94;86.55;99319.91;5032641;28;20193;-72
2021/10/02 01:01:20;;;;;;;5.13;3.58;;;;;;;14.94;86.48;99326.19;5034678;28;20224;-73
2021/10/02 01:03:54;;;;;;;7.65;4.80;;;;;;;14.79;88.10;99309.31;5035036;28;20187;-71
2021/10/02 01:06:44;;;;;;;5.22;3.03;;;;;;;14.79;88.59;99278.66;5034910;28;20206;-71
2021/10/02 01:09:20;;;;;;;8.27;3.78;;;;;;;14.52;90.47;99285.25;5018171;28;20191;-72
2021/10/02 01:12:03;;;;;;;7.00;3.67;;;;;;;14.43;93.39;99296.81;5014722;28;20201;-72
2021/10/02 01:14:38;;;;;;;3.38;2.20;;;;;;;14.63;88.46;99281.72;5015027;28;20533;-71
2021/10/02 01:17:15;;;;;;;4.90;3.15;;;;;;;14.37;90.63;99276.50;5014638;28;20183;-71
2021/10/02 01:19:55;;;;;;;3.60;3.00;;;;;;;14.53;89.93;99269.84;5015824;28;20658;-71
2021/10/02 01:22:41;;;;;;;5.82;2.80;;;;;;;14.54;90.72;99271.56;5014557;28;20187;-70
2021/10/02 01:25:17;;;;;;;5.82;3.30;;;;;;;14.63;90.97;99270.00;5014690;28;20198;-71
2021/10/02 01:27:53;;;;;;;5.18;3.35;;;;;;;14.57;92.46;99269.53;5014444;28;20241;-72
2021/10/02 01:30:34;;;;;;;4.00;2.80;;;;;;;14.63;92.35;99270.91;5014378;28;20197;-72
2021/10/02 01:33:08;;;;;;;5.35;3.40;;;;;;;14.71;91.75;99249.44;5014284;28;20209;-71
2021/10/02 01:35:43;;;;;;;5.25;3.13;;;;;;;14.59;93.02;99262.13;5014661;28;20556;-70
2021/10/02 01:49:20;;;;;;;3.95;3.15;;;;;;;14.59;93.81;99267.56;4996904;28;20281;-70
2021/10/02 01:51:48;;;;;;;4.10;3.15;;;;;;;14.75;90.97;99256.34;5014105;28;20187;-70
2021/10/02 01:54:16;;;;;;;6.20;3.30;;;;;;;14.60;92.64;99265.69;5013923;28;20202;-70
2021/10/02 01:56:44;;;;;;;3.10;2.80;;;;;;;14.65;91.90;99255.34;5014370;28;20209;-71
2021/10/02 01:59:14;;;;;;;3.78;2.53;;;;;;;14.60;91.05;99258.44;5026146;28;20198;-71
2021/10/02 02:01:44;;;;;;;5.15;3.33;;;;;;;14.53;92.15;99265.28;5033575;28;20191;-71
2021/10/02 02:04:12;;;;;;;3.47;2.95;;;;;;;14.59;92.83;99264.00;5033685;28;20698;-70
2021/10/02 02:06:42;;;;;;;5.93;3.85;;;;;;;14.49;92.75;99269.22;5033647;28;20674;-71
2021/10/02 02:09:11;;;;;;;4.60;2.45;;;;;;;14.54;92.15;99269.78;5033309;28;20190;-71
2021/10/02 02:11:40;;;;;;;2.78;2.40;;;;;;;14.57;90.53;99266.81;5032509;28;20209;-73
2021/10/02 02:14:11;;;;;;;3.92;2.60;;;;;;;14.59;89.44;99266.69;5033539;28;20549;-71
2021/10/02 02:16:41;;;;;;;4.95;2.67;;;;;;;14.57;90.32;99265.97;5033659;28;20216;-70
2021/10/02 02:19:08;;;;;;;2.60;2.40;;;;;;;14.61;90.31;99262.03;5023603;28;20199;-71
2021/10/02 02:21:34;;;;;;;5.00;2.67;;;;;;;14.55;90.45;99265.22;5013859;28;20305;-72
2021/10/02 02:24:01;;;;;;;3.67;2.70;;;;;;;14.43;90.97;99268.88;5013531;28;20201;-70
2021/10/02 02:26:29;;;;;;;5.40;2.72;;;;;;;14.34;92.67;99268.63;5013646;28;20186;-71
2021/10/02 02:28:57;;;;;;;3.25;2.75;;;;;;;14.44;93.16;99267.88;5013074;28;20234;-72
2021/10/02 02:31:24;;;;;;;3.60;2.92;;;;;;;14.45;93.54;99267.78;5013411;28;20191;-71
2021/10/02 02:33:53;;;;;;;4.97;3.13;;;;;;;14.50;93.28;99276.38;5013546;28;20309;-71
2021/10/02 02:36:21;;;;;;;5.30;2.40;;;;;;;14.74;92.52;99261.88;5013472;28;20206;-70
2021/10/02 02:38:48;;;;;;;3.33;2.85;;;;;;;14.60;93.22;99265.69;5013551;28;20617;-70
2021/10/02 02:41:15;;;;;;;4.78;2.97;;;;;;;14.42;94.77;99267.13;5013468;28;20207;-72
2021/10/02 02:43:41;;;;;;;7.40;3.25;;;;;;;14.33;95.17;99261.47;5017826;28;20183;-72
2021/10/02 02:46:10;;;;;;;3.28;2.90;;;;;;;14.07;95.71;99252.69;5032653;28;20213;-73
2021/10/02 02:48:46;;;;;;;3.90;2.90;;;;;;;14.15;96.32;99243.97;5033245;28;20548;-72
2021/10/02 02:51:20;;;;;;;5.15;3.33;;;;;;;14.14;95.42;99239.53;5033056;28;20189;-72
2021/10/02 02:53:58;;;;;;;4.88;3.15;;;;;;;14.17;95.02;99242.00;5033143;28;20209;-72
2021/10/02 02:56:30;;;;;;;7.03;3.40;;;;;;;14.19;93.98;99240.88;5033208;28;20196;-72
2021/10/02 02:59:08;;;;;;;4.90;3.60;;;;;;;14.14;94.40;99237.69;5032938;28;20616;-70
2021/10/02 03:01:39;;;;;;;4.70;3.90;;;;;;;14.16;95.60;99238.44;5032820;28;20212;-73
2021/10/02 03:04:13;;;;;;;3.72;3.30;;;;;;;14.10;95.23;99238.91;5033046;28;20624;-71
2021/10/02 03:06:44;;;;;;;4.03;3.58;;;;;;;14.23;95.10;99230.69;5033123;28;20190;-71
2021/10/02 03:09:14;;;;;;;4.85;3.83;;;;;;;14.23;94.33;99236.09;5032857;28;20193;-71
2021/10/02 03:11:41;;;;;;;7.45;4.47;;;;;;;14.07;96.95;99247.28;5032760;28;20189;-71
2021/10/02 03:14:08;;;;;;;7.45;3.67;;;;;;;14.34;95.76;99240.69;5025680;28;20215;-72
2021/10/02 03:16:35;;;;;;;6.30;3.88;;;;;;;14.33;95.30;99239.78;5012938;28;20194;-72
2021/10/02 03:19:05;;;;;;;9.40;5.10;;;;;;;14.34;95.23;99235.25;5012958;28;20194;-71
2021/10/02 03:21:32;;;;;;;6.10;4.22;;;;;;;14.16;96.47;99235.72;5013047;28;20212;-71
2021/10/02 03:24:02;;;;;;;7.78;3.58;;;;;;;14.48;94.23;99239.56;5015443;28;20186;-71
2021/10/02 03:26:30;;;;;;;14.75;4.25;;;;;;;14.58;92.18;99243.28;5017076;28;20191;-71
2021/10/02 03:28:58;;;;;;;4.30;3.90;;;;;;;14.43;93.10;99249.91;5016400;28;20327;-72
2021/10/02 03:31:25;;;;;;;6.40;3.80;;;;;;;14.46;93.46;99249.66;5016626;28;20343;-71
2021/10/02 03:33:52;;;;;;;6.53;4.15;;;;;;;14.61;91.94;99245.78;5016720;28;20211;-71
2021/10/02 03:36:19;;;;;;;4.68;4.10;;;;;;;14.51;92.08;99248.28;5016856;28;20206;-71
2021/10/02 03:38:48;;;;;;;4.97;3.70;;;;;;;14.45;91.08;99247.94;5016961;28;20191;-71
2021/10/02 03:41:16;;;;;;;4.55;3.15;;;;;;;14.52;89.99;99243.78;5016673;28;20201;-72
2021/10/02 03:43:42;;;;;;;4.85;4.28;;;;;;;14.54;90.32;99233.66;5016808;28;20289;-72
2021/10/02 03:46:09;;;;;;;7.25;4.20;;;;;;;14.45;91.63;99216.31;5035000;28;20699;-72
2021/10/02 03:48:35;;;;;;;8.18;4.68;;;;;;;14.26;93.56;99218.75;5036188;28;20211;-72
2021/10/02 03:51:02;;;;;;;6.38;4.30;;;;;;;14.43;93.64;99212.84;5036240;28;20211;-71
2021/10/02 03:53:30;;;;;;;4.40;3.95;;;;;;;14.33;93.75;99218.13;5036165;28;20214;-71
2021/10/02 03:55:57;;;;;;;5.07;4.10;;;;;;;14.48;92.04;99217.91;5035808;28;20192;-72
2021/10/02 03:58:26;;;;;;;7.07;4.20;;;;;;;14.45;91.23;99219.03;5035452;28;20196;-72
2021/10/02 04:00:52;;;;;;;4.63;3.95;;;;;;;14.47;91.33;99210.75;5036335;28;20200;-72
2021/10/02 04:03:19;;;;;;;5.65;4.35;;;;;;;14.48;91.00;99217.91;5036258;28;20188;-72
2021/10/02 04:05:46;;;;;;;4.72;4.03;;;;;;;14.43;89.46;99214.72;5035957;28;20643;-71
2021/10/02 04:08:12;;;;;;;5.68;4.18;;;;;;;14.35;90.30;99204.47;5035820;28;20311;-71
2021/10/02 04:10:39;;;;;;;5.90;4.45;;;;;;;14.39;89.56;99206.81;5035965;28;20631;-71
2021/10/02 04:13:06;;;;;;;5.10;3.58;;;;;;;14.32;89.35;99200.16;5035900;28;20312;-72
2021/10/02 04:15:35;;;;;;;4.18;3.60;;;;;;;14.29;89.53;99192.31;5033689;28;20547;-71
2021/10/02 04:18:01;;;;;;;5.55;3.90;;;;;;;14.46;88.52;99187.38;5035836;28;20229;-72
2021/10/02 04:20:28;;;;;;;3.50;3.20;;;;;;;14.44;88.22;99189.34;5035770;28;20852;-71
2021/10/02 04:22:55;;;;;;;4.65;4.18;;;;;;;14.32;89.43;99183.06;5035850;28;20200;-71
2021/10/02 04:25:21;;;;;;;3.90;3.60;;;;;;;14.27;90.09;99188.84;5035842;28;20190;-73
2021/10/02 04:27:48;;;;;;;11.77;4.70;;;;;;;14.14;91.44;99190.81;5035234;28;20208;-72
2021/10/02 04:30:15;;;;;;;6.50;4.75;;;;;;;14.27;91.49;99193.38;5035523;28;20251;-72
2021/10/02 04:32:43;;;;;;;5.03;3.75;;;;;;;14.44;89.87;99195.59;5035098;28;20197;-72
2021/10/02 04:35:09;;;;;;;4.05;3.65;;;;;;;14.35;88.36;99191.78;5034628;28;20624;-72
2021/10/02 04:37:36;;;;;;;5.10;3.28;;;;;;;14.51;86.65;99196.81;5035449;28;20200;-72
2021/10/02 04:40:03;;;;;;;4.20;3.30;;;;;;;14.41;87.79;99195.00;5035230;28;20205;-72
2021/10/02 04:42:30;;;;;;;9.55;4.53;;;;;;;14.41;87.73;99182.31;5035163;28;20192;-71
2021/10/02 04:44:57;;;;;;;5.72;5.20;;;;;;;14.24;90.00;99188.22;5033617;28;20198;-72
2021/10/02 04:47:26;;;;;;;4.13;3.75;;;;;;;14.27;90.12;99194.28;5034854;28;20610;-72
2021/10/02 04:49:54;;;;;;;4.88;4.20;;;;;;;14.17;89.98;99204.94;5035073;28;20205;-72
2021/10/02 04:52:20;;;;;;;4.95;4.55;;;;;;;14.31;88.45;99201.16;5034956;28;20250;-72
2021/10/02 04:54:47;;;;;;;4.47;3.90;;;;;;;14.41;87.54;99205.84;5034910;28;20213;-71
2021/10/02 04:57:14;;;;;;;4.68;3.80;;;;;;;14.43;87.59;99193.03;5034966;28;20203;-71
2021/10/02 04:59:40;;;;;;;5.93;3.90;;;;;;;14.37;85.02;99195.22;5034878;28;20643;-72
2021/10/02 05:02:07;;;;;;;5.18;3.55;;;;;;;14.49;84.86;99185.25;5034793;28;20219;-70
2021/10/02 05:04:33;;;;;;;4.68;3.60;;;;;;;14.46;85.25;99182.81;5034847;28;20617;-71
2021/10/02 05:07:01;;;;;;;6.18;3.90;;;;;;;14.43;84.86;99176.78;5035145;28;20635;-72
2021/10/02 05:09:28;;;;;;;4.90;3.28;;;;;;;14.35;85.42;99172.81;5032925;28;20206;-70
2021/10/02 05:11:56;;;;;;;4.75;3.17;;;;;;;14.43;84.78;99171.38;5034520;28;20288;-73
2021/10/02 05:14:22;;;;;;;7.10;3.25;;;;;;;14.57;81.71;99180.13;5034396;28;20328;-72
2021/10/02 05:16:49;;;;;;;7.40;3.30;;;;;;;14.55;81.82;99175.81;5034632;28;20610;-72
2021/10/02 05:19:16;;;;;;;4.05;3.65;;;;;;;14.55;82.87;99178.53;5020020;28;20224;-73
2021/10/02 05:21:42;;;;;;;6.70;4.50;;;;;;;14.28;85.07;99174.31;5014712;28;20201;-72
2021/10/02 05:24:10;;;;;;;6.00;4.18;;;;;;;14.05;88.17;99178.00;5014384;28;20190;-72
2021/10/02 05:26:37;;;;;;;5.72;4.45;;;;;;;13.93;89.81;99178.00;5014869;28;20277;-72
2021/10/02 05:29:03;;;;;;;5.53;4.55;;;;;;;13.77;91.40;99181.03;5014107;28;20241;-72
2021/10/02 05:31:30;;;;;;;7.95;4.90;;;;;;;14.06;89.51;99171.59;5014926;28;20189;-72
2021/10/02 05:33:57;;;;;;;19.77;11.82;;;;;;;13.97;90.18;99182.19;5019275;28;20212;-71
2021/10/02 05:36:23;;;;;;;6.55;5.65;;;;;;;13.93;90.55;99175.28;5031704;28;20208;-72
2021/10/02 05:38:50;;;;;;;8.07;4.55;;;;;;;13.88;91.69;99172.06;5030180;28;20267;-70
2021/10/02 05:41:18;;;;;;;7.65;5.05;;;;;;;13.79;92.82;99171.91;5014076;28;20188;-72
2021/10/02 05:43:44;;;;;;;5.90;4.65;;;;;;;14.03;91.73;99175.41;5014396;28;20201;-73
2021/10/02 05:46:11;;;;;;;7.47;4.72;;;;;;;14.05;90.50;99186.97;5013499;28;20192;-72
2021/10/02 05:48:38;;;;;;;4.80;4.38;;;;;;;14.21;89.37;99191.19;5014053;28;20199;-72
2021/10/02 05:51:05;;;;;;;5.95;5.18;;;;;;;14.22;88.82;99190.19;5018785;28;20554;-71
2021/10/02 05:53:32;;;;;;;5.85;4.50;;;;;;;14.12;88.67;99190.91;5033771;28;20225;-72
2021/10/02 05:55:58;;;;;;;9.93;4.85;;;;;;;13.97;89.45;99187.59;5033998;28;20189;-71
2021/10/02 05:58:26;;;;;;;8.88;5.05;;;;;;;14.19;89.67;99185.88;5033509;28;20204;-72
2021/10/02 06:00:53;;;;;;;6.53;4.80;;;;;;;14.11;88.55;99191.03;5030695;28;20687;-72
2021/10/02 06:03:20;;;;;;;5.28;4.80;;;;;;;14.24;87.54;99182.81;5027852;28;20202;-70
2021/10/02 06:05:46;;;;;;;6.53;4.88;;;;;;;14.32;86.50;99183.06;5033687;28;20615;-72
2021/10/02 06:08:13;;;;;;;8.65;4.72;;;;;;;14.25;87.47;99177.28;5033037;28;20287;-71
2021/10/02 06:10:40;;;;;;;5.05;4.45;;;;;;;14.28;87.58;99179.72;5033482;28;20610;-71
2021/10/02 06:13:06;;;;;;;6.72;5.30;;;;;;;14.25;87.46;99179.97;5033215;28;20298;-71
2021/10/02 06:15:34;;;;;;;4.90;4.22;;;;;;;14.38;86.78;99178.03;5033474;28;20635;-71
2021/10/02 06:18:01;;;;;;;5.63;4.15;;;;;;;14.32;87.63;99183.91;5033424;28;20727;-71
2021/10/02 06:20:28;;;;;;;4.78;4.25;;;;;;;14.37;86.57;99178.97;5032977;28;20195;-72
2021/10/02 06:22:54;;;;;;;5.00;3.55;;;;;;;14.48;84.32;99174.56;5033136;28;20668;-71
2021/10/02 06:25:21;;;;;;;7.43;4.80;;;;;;;14.46;84.25;99176.53;5033012;28;20279;-71
2021/10/02 06:27:48;;;;;;;5.88;4.85;;;;;;;14.50;84.25;99176.16;5026638;28;20201;-71
2021/10/02 06:30:14;;;;;;;6.43;4.63;;;;;;;14.47;85.37;99172.81;5013603;28;20200;-70
2021/10/02 06:32:43;;;;;;;6.18;4.70;;;;;;;14.44;85.55;99173.09;5013247;28;20190;-70
2021/10/02 06:35:09;;;;;;;5.95;4.90;;;;;;;14.32;86.08;99169.53;5013187;28;20549;-70
2021/10/02 06:37:45;;;;;;;7.65;4.63;;;;;;;14.43;85.17;99176.78;5020537;28;20197;-72
2021/10/02 06:40:14;;;;;;;7.72;4.65;;;;;;;14.44;85.65;99175.78;5021877;28;20633;-73
2021/10/02 06:42:41;;;;;;;5.93;4.68;;;;;;;14.56;83.93;99178.41;5016425;28;20251;-73
2021/10/02 06:45:09;;;;;;;5.85;5.18;;;;;;;14.56;83.58;99180.22;5011648;28;20277;-73
2021/10/02 06:47:35;;;;;;;7.55;4.40;;;;;;;14.55;84.03;99182.09;5011714;28;20197;-73
2021/10/02 06:50:04;;;;;;;5.57;4.20;;;;;;;14.69;83.32;99183.66;5011714;28;20201;-73
2021/10/02 06:52:31;;;;;;;5.05;4.43;;;;;;;14.66;83.64;99181.22;5011858;28;20292;-73
2021/10/02 06:54:58;;;;;;;6.47;5.05;;;;;;;14.70;83.54;99176.44;5012009;28;20328;-73
2021/10/02 06:57:25;;;;;;;7.55;4.75;;;;;;;14.92;81.85;99178.22;5018850;28;20191;-73
2021/10/02 06:59:52;;;;;;;9.00;4.95;;;;;;;14.95;81.94;99180.69;5055585;28;20298;-73
2021/10/02 07:02:18;;;;;;;6.47;4.68;;;;;;;15.02;81.11;99171.91;5055382;28;20188;-73
2021/10/02 07:04:49;;;;;;;7.28;4.40;;;;;;;15.01;81.33;99166.59;5055083;28;20197;-73
2021/10/02 07:07:17;;;;;;;8.57;4.40;;;;;;;14.92;81.59;99178.22;5055665;28;20224;-73
2021/10/02 07:09:44;;;;;;;6.60;4.57;;;;;;;14.99;81.29;99166.75;5055791;28;20201;-73
2021/10/02 07:12:10;;;;;;;5.78;4.07;;;;;;;15.11;80.41;99170.28;5055538;28;20641;-73
2021/10/02 07:14:38;;;;;;;8.05;5.40;;;;;;;15.05;80.21;99165.34;5055286;28;20212;-73
2021/10/02 07:17:04;;;;;;;5.20;4.32;;;;;;;15.02;80.39;99163.75;5055389;28;20676;-73
2021/10/02 07:19:31;;;;;;;4.70;4.07;;;;;;;14.96;80.72;99161.56;5055297;28;20188;-73
2021/10/02 07:21:58;;;;;;;8.30;4.70;;;;;;;15.15;80.09;99157.31;5055372;28;20198;-74
2021/10/02 07:24:26;;;;;;;4.38;3.78;;;;;;;15.42;78.49;99165.84;5054712;28;20287;-73
2021/10/02 07:26:52;;;;;;;5.65;3.95;;;;;;;15.52;76.85;99155.06;5054843;28;20190;-73
2021/10/02 07:29:19;;;;;;;11.13;9.70;;;;;;;15.61;77.04;99161.56;5035647;28;20232;-73
2021/10/02 07:31:48;;;;;;;14.82;10.73;;;;;;;15.96;75.13;99155.78;5035299;28;20572;-74
2021/10/02 07:34:15;;;;;;;4.65;3.65;;;;;;;15.93;75.12;99161.50;5015791;28;20207;-74
2021/10/02 07:36:41;;;;;;;7.35;4.65;;;;;;;15.91;74.86;99160.75;5016588;28;20198;-74
2021/10/02 07:39:08;;;;;;;4.05;3.50;;;;;;;15.37;76.80;99137.38;5026009;28;20283;-73
2021/10/02 07:41:38;;;;;;;5.90;3.65;;;;;;;15.34;77.49;99143.06;5028090;28;20208;-74
2021/10/02 07:44:06;;;;;;;5.22;3.50;;;;;;;15.43;76.59;99145.84;5014952;28;20607;-74
2021/10/02 07:46:33;;;;;;;4.35;3.97;;;;;;;15.57;76.93;99152.78;5026684;28;20209;-75
2021/10/02 07:49:01;;;;;;;6.28;4.05;;;;;;;15.52;76.72;99154.19;5034844;28;20675;-74
2021/10/02 07:51:28;;;;;;;4.85;4.20;;;;;;;15.77;75.23;99147.53;5034683;28;20658;-76
2021/10/02 07:53:58;;;;;;;13.02;3.65;;;;;;;15.82;75.20;99146.13;5034661;28;20186;-74
2021/10/02 07:56:26;;;;;;;6.05;3.55;;;;;;;15.93;74.52;99150.63;5029756;28;20264;-74
2021/10/02 07:58:54;;;;;;;6.05;5.15;;;;;;;16.03;73.27;99153.41;5025629;28;20183;-75
2021/10/02 08:01:22;;;;;;;3.50;3.20;;;;;;;16.12;72.43;99168.88;5035303;28;20206;-73
2021/10/02 08:03:52;;;;;;;6.50;3.92;;;;;;;16.30;71.17;99168.25;5022324;28;20179;-75
2021/10/02 08:06:22;;;;;;;8.20;3.30;;;;;;;16.27;71.56;99161.25;5035334;28;20208;-75
2021/10/02 08:08:50;;;;;;;5.35;3.42;;;;;;;16.58;70.89;99174.81;5025233;28;20187;-75
2021/10/02 08:11:16;;;;;;;5.35;3.63;;;;;;;16.79;69.83;99181.06;5014900;28;20183;-75
2021/10/02 08:13:43;;;;;;;5.95;3.35;;;;;;;17.01;69.12;99173.69;5016590;28;20282;-73
2021/10/02 08:16:13;;;;;;;9.80;3.08;;;;;;;17.00;68.82;99182.81;5016697;28;20213;-75
2021/10/02 08:18:40;;;;;;;6.40;4.25;;;;;;;17.27;67.24;99176.69;5026848;28;20665;-75
2021/10/02 08:21:07;;;;;;;8.27;5.20;;;;;;;17.38;66.77;99179.28;5030729;28;20198;-75
2021/10/02 08:23:37;;;;;;;3.40;3.05;;;;;;;17.47;65.87;99183.00;5032339;28;20207;-74
2021/10/02 08:26:04;;;;;;;3.60;2.90;;;;;;;17.32;66.50;99165.38;5015366;28;20544;-75
2021/10/02 08:28:33;;;;;;;4.45;3.33;;;;;;;17.29;66.78;99164.66;5014788;28;20231;-75
2021/10/02 08:31:01;;;;;;;5.00;3.50;;;;;;;17.42;66.24;99152.66;5015080;28;20246;-75
2021/10/02 08:33:30;;;;;;;5.70;3.67;;;;;;;17.58;66.55;99147.47;5014619;28;20195;-76
2021/10/02 08:35:56;;;;;;;7.15;3.22;;;;;;;17.76;65.41;99146.75;5018446;28;20212;-75
2021/10/02 08:38:23;;;;;;;4.30;2.90;;;;;;;18.17;63.63;99133.75;5034047;28;20273;-75
2021/10/02 08:40:50;;;;;;;6.13;3.75;;;;;;;18.29;63.25;99136.16;5034239;28;20297;-75
2021/10/02 08:43:18;;;;;;;3.33;3.00;;;;;;;17.95;64.06;99141.28;5031721;28;20194;-75
2021/10/02 08:45:44;;;;;;;9.07;3.40;;;;;;;18.16;64.12;99130.19;5015668;28;20197;-75
2021/10/02 08:48:14;;;;;;;4.32;3.10;;;;;;;18.26;63.35;99124.69;5014517;28;20292;-75
2021/10/02 08:50:43;;;;;;;4.78;3.10;;;;;;;18.07;64.25;99120.19;5014648;28;20201;-75
2021/10/02 08:53:11;;;;;;;4.70;3.03;;;;;;;18.11;64.27;99117.00;5014036;28;20188;-75
2021/10/02 08:55:39;;;;;;;3.67;3.17;;;;;;;18.21;64.37;99106.06;5014536;28;20660;-74
2021/10/02 08:58:06;;;;;;;3.83;3.45;;;;;;;18.33;64.63;99106.72;5014186;28;20185;-74
2021/10/02 09:00:33;;;;;;;6.13;3.10;;;;;;;18.40;63.94;99105.09;5014401;28;20227;-74
2021/10/02 09:03:00;;;;;;;6.75;3.70;;;;;;;18.19;64.66;99099.06;5014284;28;20631;-74
2021/10/02 09:05:29;;;;;;;3.40;2.15;;;;;;;18.05;64.95;99097.69;5014551;28;20538;-75
2021/10/02 09:07:59;;;;;;;11.13;7.90;;;;;;;18.38;64.58;99090.78;5014418;28;20280;-74
2021/10/02 09:10:28;;;;;;;3.80;3.30;;;;;;;18.47;62.81;99089.84;5013856;28;20276;-74
2021/10/02 09:12:54;;;;;;;3.15;2.75;;;;;;;18.34;63.74;99087.50;5014299;28;20184;-74
2021/10/02 09:15:21;;;;;;;5.78;3.45;;;;;;;18.62;62.59;99086.63;5013810;28;20205;-75
2021/10/02 09:17:48;;;;;;;4.30;3.00;;;;;;;18.86;61.93;99083.31;5013934;28;20241;-75
2021/10/02 09:20:16;;;;;;;3.55;2.78;;;;;;;18.94;61.54;99075.25;5014480;28;20296;-75
2021/10/02 09:22:53;;;;;;;4.68;3.03;;;;;;;19.20;60.60;99079.91;5013708;28;20209;-75
2021/10/02 09:25:21;;;;;;;6.20;3.78;;;;;;;19.22;60.59;99077.88;5013951;28;20253;-74
2021/10/02 09:28:06;;;;;;;3.35;2.90;;;;;;;19.02;60.66;99078.06;5013542;28;20216;-75
2021/10/02 09:30:32;;;;;;;4.28;3.75;;;;;;;18.74;61.99;99055.41;5014069;28;20647;-74
2021/10/02 09:33:05;;;;;;;3.33;3.03;;;;;;;18.69;62.47;99055.00;5013434;28;20322;-74
2021/10/02 09:35:37;;;;;;;3.47;2.85;;;;;;;19.02;61.80;99056.22;5013423;28;20229;-75
2021/10/02 09:38:04;;;;;;;4.57;2.83;;;;;;;19.03;61.87;99048.91;5013982;28;20277;-75
2021/10/02 09:40:33;;;;;;;7.10;2.95;;;;;;;19.10;61.44;99041.78;5013117;28;20206;-75
2021/10/02 09:43:01;;;;;;;2.95;2.65;;;;;;;18.93;61.44;99044.38;5013430;28;20216;-74
2021/10/02 09:45:30;;;;;;;3.13;2.83;;;;;;;18.94;61.92;99026.13;5013496;28;20186;-74
2021/10/02 09:48:02;;;;;;;5.53;3.10;;;;;;;19.17;61.58;99021.94;5013331;28;20300;-74
2021/10/02 09:50:30;;;;;;;3.17;2.35;;;;;;;19.29;60.91;99019.78;5013523;28;20199;-75
2021/10/02 09:53:03;;;;;;;7.60;2.60;;;;;;;19.41;60.71;99017.66;5013630;28;20276;-75
2021/10/02 09:55:33;;;;;;;5.53;2.55;;;;;;;19.45;60.49;99023.66;5013284;28;20214;-75
2021/10/02 09:58:02;;;;;;;7.05;5.03;;;;;;;19.44;61.04;99017.31;5013175;28;20196;-75
2021/10/02 10:00:31;;;;;;;4.72;3.30;;;;;;;19.55;61.15;99032.59;5013113;28;20214;-75
2021/10/02 10:02:59;;;;;;;5.65;3.30;;;;;;;19.39;61.57;99030.59;5012585;28;20210;-75
2021/10/02 10:05:34;;;;;;;3.88;2.50;;;;;;;19.28;61.27;99023.53;5012614;28;20212;-75
2021/10/02 10:08:04;;;;;;;4.70;3.53;;;;;;;19.51;60.73;99026.56;5012658;28;20200;-75
2021/10/02 10:10:34;;;;;;;3.78;3.00;;;;;;;19.81;60.06;99023.56;5013116;28;20603;-75
2021/10/02 10:13:10;;;;;;;4.20;2.72;;;;;;;20.24;59.18;99033.50;5013025;28;20614;-75
2021/10/02 10:15:39;;;;;;;7.10;2.80;;;;;;;20.68;56.72;99019.66;5012939;28;20297;-75
2021/10/02 10:18:08;;;;;;;4.03;3.00;;;;;;;20.96;55.98;99011.13;5013282;28;20213;-75
2021/10/02 10:20:42;;;;;;;2.37;1.77;;;;;;;20.88;54.65;99016.59;5013028;28;20468;-75
2021/10/02 10:23:11;;;;;;;2.93;2.17;;;;;;;20.81;54.44;99010.97;5012811;28;20465;-76
2021/10/02 10:25:53;;;;;;;3.90;2.47;;;;;;;20.19;55.92;99003.94;5012956;28;20990;-75
2021/10/02 10:28:22;;;;;;;6.03;2.00;;;;;;;19.89;56.83;99001.75;5012512;28;20576;-75
2021/10/02 10:30:50;;;;;;;3.00;2.30;;;;;;;20.38;56.30;98993.75;5012497;28;20433;-76
2021/10/02 10:33:19;;;;;;;2.63;2.20;;;;;;;20.80;55.27;99001.03;5012622;28;20896;-75
2021/10/02 10:35:48;;;;;;;7.43;2.70;;;;;;;20.10;55.95;98998.59;5012842;28;20487;-74
2021/10/02 10:38:17;;;;;;;5.80;3.60;;;;;;;20.33;55.83;99004.34;5012346;28;20543;-75
2021/10/02 10:40:44;;;;;;;4.80;2.75;;;;;;;20.44;55.32;98993.06;5012942;28;20470;-74
2021/10/02 10:43:12;;;;;;;2.40;2.20;;;;;;;20.53;54.60;98993.94;5012462;28;20239;-75
2021/10/02 10:45:39;;;;;;;7.10;3.47;;;;;;;20.55;54.96;98991.88;5012869;28;20445;-74
2021/10/02 10:48:08;;;;;;;3.50;2.37;;;;;;;20.90;54.08;98976.25;5012875;28;20968;-74
2021/10/02 10:50:36;;;;;;;3.13;2.60;;;;;;;21.07;53.47;98967.00;5012227;28;20444;-75
2021/10/02 10:53:04;;;;;;;4.70;2.33;;;;;;;21.17;53.58;98964.09;5012204;28;20441;-74
2021/10/02 10:55:31;;;;;;;3.53;3.00;;;;;;;21.35;52.98;98952.97;5012182;28;20908;-75
2021/10/02 10:58:00;;;;;;;4.77;2.20;;;;;;;21.28;52.37;98951.91;5012263;28;20445;-75
2021/10/02 11:00:42;;;;;;;3.33;2.30;;;;;;;20.98;53.46;98968.03;5011955;28;20436;-75
2021/10/02 11:03:10;;;;;;;3.20;2.63;;;;;;;21.08;53.33;98957.78;5012453;28;20463;-75
2021/10/02 11:05:49;;;;;;;2.40;2.13;;;;;;;21.06;53.19;98957.09;5012156;28;20842;-75
2021/10/02 11:08:22;;;;;;;3.73;1.97;;;;;;;21.00;53.66;98955.88;5011714;28;20516;-75
2021/10/02 11:10:56;;;;;;;4.10;2.90;;;;;;;21.07;53.37;98947.00;5012317;28;20504;-75
2021/10/02 11:13:56;;;;;;;6.47;3.50;;;;;;;21.01;54.03;98937.59;5012258;28;20427;-75
2021/10/02 11:16:38;;;;;;;6.30;2.70;;;;;;;21.11;53.48;98934.69;5012234;28;21009;-75
2021/10/02 11:19:33;;;;;;;4.30;3.10;;;;;;;21.69;52.67;98928.06;5012315;28;20787;-75
2021/10/02 11:22:03;;;;;;;4.00;2.80;;;;;;;21.92;51.38;98932.78;5005280;28;20545;-75
2021/10/02 11:24:40;;;;;;;3.80;2.50;;;;;;;21.85;51.07;98921.66;5011886;28;20432;-75
2021/10/02 11:27:08;;;;;;;3.07;2.50;;;;;;;21.71;51.18;98916.91;5012365;28;20779;-75
2021/10/02 11:29:36;;;;;;;8.43;2.87;;;;;;;21.73;51.23;98907.50;5011797;28;20575;-75
2021/10/02 11:32:30;;;;;;;5.50;2.87;;;;;;;21.90;51.18;98893.72;5012066;28;20509;-75
2021/10/02 11:35:10;;;;;;;2.33;2.10;;;;;;;21.69;50.97;98888.88;5011910;28;20776;-74
2021/10/02 11:37:57;;;;;;;3.53;2.07;;;;;;;21.45;52.11;98894.25;5011892;28;20889;-75
2021/10/02 11:40:51;;;;;;;5.63;2.17;;;;;;;21.37;52.72;98891.50;5012076;28;20880;-75
2021/10/02 11:43:24;;;;;;;5.03;3.83;;;;;;;21.41;53.11;98903.84;5005392;28;20536;-75
2021/10/02 11:45:56;;;;;;;2.20;1.90;;;;;;;21.43;53.15;98898.19;5015209;28;20875;-75
2021/10/02 11:48:43;;;;;;;2.97;2.03;;;;;;;21.34;52.84;98900.06;5015176;28;20514;-75
2021/10/02 11:51:30;;;;;;;3.23;2.93;;;;;;;21.40;52.66;98895.78;5015458;28;20429;-75
2021/10/02 11:53:59;;;;;;;5.57;3.70;;;;;;;21.33;52.74;98897.50;5015206;28;20943;-75
2021/10/02 11:56:28;;;;;;;2.70;1.70;;;;;;;21.63;51.66;98891.25;5015061;28;20564;-75
2021/10/02 11:58:55;;;;;;;5.20;3.27;;;;;;;21.62;51.60;98888.72;5015042;28;20445;-75
2021/10/02 12:01:24;;;;;;;6.03;2.70;;;;;;;21.99;50.73;98881.69;5015313;28;20943;-75
2021/10/02 12:04:01;;;;;;;5.13;3.03;;;;;;;21.98;50.38;98871.75;5015436;28;20437;-75
2021/10/02 12:06:28;;;;;;;6.13;2.77;;;;;;;22.33;49.44;98880.47;5015015;28;20510;-75
2021/10/02 12:08:56;;;;;;;2.80;2.00;;;;;;;22.30;49.47;98869.88;5015262;28;20786;-75
2021/10/02 12:11:23;;;;;;;3.20;2.00;;;;;;;22.13;49.69;98860.88;5014863;28;20934;-75
2021/10/02 12:13:52;;;;;;;2.27;1.70;;;;;;;22.38;49.21;98867.91;5015271;28;20941;-77
2021/10/02 12:16:20;;;;;;;3.93;2.00;;;;;;;22.53;49.00;98857.00;5014709;28;20819;-75
2021/10/02 12:18:55;;;;;;;3.00;2.60;;;;;;;22.56;49.23;98844.81;5015270;28;20979;-76
2021/10/02 12:21:34;;;;;;;3.30;2.80;;;;;;;22.37;49.96;98846.19;5015586;28;20569;-76
2021/10/02 12:24:04;;;;;;;2.93;1.73;;;;;;;21.88;50.40;98849.22;5014357;28;20508;-74
2021/10/02 12:26:32;;;;;;;2.47;2.10;;;;;;;21.60;51.13;98846.97;5014899;28;20502;-75
2021/10/02 12:29:01;;;;;;;2.43;2.10;;;;;;;21.28;52.17;98845.16;5014282;28;20916;-74
2021/10/02 12:31:51;;;;;;;3.17;2.10;;;;;;;21.20;52.53;98843.31;5014394;28;20429;-74
2021/10/02 12:37:27;;;;;;;5.93;2.40;;;;;;;21.71;51.65;98821.91;5016841;28;20489;-74